createdAt,value
2023-05-19T00:01:07.198Z,5.3
2023-05-19T00:04:05.459Z,5.2
2023-05-19T00:07:05.105Z,5.2
2023-05-19T00:10:05.000Z,5.2
2023-05-19T00:13:04.953Z,5.2
2023-05-19T00:16:05.116Z,5.2
2023-05-19T00:19:05.184Z,5.2
2023-05-19T00:22:04.899Z,5.2
2023-05-19T00:25:04.952Z,5.2
2023-05-19T00:28:04.957Z,5.2
2023-05-19T00:31:05.168Z,5.1
2023-05-19T00:34:05.059Z,5.1
2023-05-19T00:37:04.918Z,5.2
2023-05-19T00:40:04.951Z,5.2
2023-05-19T00:43:04.956Z,5.2
2023-05-19T00:46:05.025Z,5.2
2023-05-19T00:49:05.053Z,5.2
2023-05-19T00:52:04.991Z,5.2
2023-05-19T00:55:04.945Z,5.1
2023-05-19T00:58:05.200Z,5.1
2023-05-19T01:01:05.512Z,5.1
2023-05-19T01:04:05.685Z,5.1
2023-05-19T01:07:04.970Z,5.1
2023-05-19T01:10:04.910Z,5.1
2023-05-19T01:13:04.928Z,5.2
2023-05-19T01:16:05.005Z,5.2
2023-05-19T01:19:05.139Z,5.3
2023-05-19T01:22:05.035Z,5.3
2023-05-19T01:25:04.958Z,5.3
2023-05-19T01:28:04.955Z,5.3
2023-05-19T01:31:05.212Z,5.3
2023-05-19T01:34:05.007Z,5.3
2023-05-19T01:37:05.075Z,5.3
2023-05-19T01:40:04.968Z,5.3
2023-05-19T01:43:05.024Z,5.2
2023-05-19T01:46:05.726Z,5.2
2023-05-19T01:49:05.234Z,5.2
2023-05-19T01:52:04.961Z,5.2
2023-05-19T01:55:04.988Z,5.2
2023-05-19T01:58:04.944Z,5.2
2023-05-19T02:01:05.945Z,5.2
2023-05-19T02:04:05.028Z,5.1
2023-05-19T02:07:04.958Z,5.1
2023-05-19T02:10:04.897Z,5.2
2023-05-19T02:13:04.982Z,5.2
2023-05-19T02:16:05.341Z,5.2
2023-05-19T02:19:05.044Z,5.1
2023-05-19T02:22:05.020Z,5.2
2023-05-19T02:25:04.895Z,5.2
2023-05-19T02:28:04.946Z,5.2
2023-05-19T02:31:05.336Z,5.2
2023-05-19T02:34:04.969Z,5.1
2023-05-19T02:37:04.972Z,5.2
2023-05-19T02:40:04.934Z,5.1
2023-05-19T02:43:05.070Z,5.1
2023-05-19T02:46:14.882Z,5.1
2023-05-19T02:49:05.014Z,5.2
2023-05-19T02:52:04.922Z,5.2
2023-05-19T02:55:04.951Z,5.2
2023-05-19T02:58:04.988Z,5.1
2023-05-19T03:01:06.269Z,5.1
2023-05-19T03:04:05.322Z,5.0
2023-05-19T03:07:04.971Z,5.1
2023-05-19T03:10:04.928Z,5.0
2023-05-19T03:13:04.927Z,5.0
2023-05-19T03:16:05.182Z,5.0
2023-05-19T03:19:05.071Z,5.1
2023-05-19T03:22:04.979Z,5.0
2023-05-19T03:25:04.966Z,4.9
2023-05-19T03:28:04.930Z,4.9
2023-05-19T03:31:05.280Z,4.9
2023-05-19T03:34:05.353Z,5.0
2023-05-19T03:37:04.935Z,5.0
2023-05-19T03:40:04.977Z,4.9
2023-05-19T03:43:05.071Z,4.9
2023-05-19T03:46:07.827Z,4.8
2023-05-19T03:49:07.543Z,4.8
2023-05-19T03:52:04.963Z,4.6
2023-05-19T03:55:04.893Z,4.6
2023-05-19T03:58:04.973Z,4.7
2023-05-19T04:01:05.386Z,4.6
2023-05-19T04:04:05.616Z,4.7
2023-05-19T04:07:04.973Z,4.8
2023-05-19T04:10:04.927Z,4.8
2023-05-19T04:13:04.948Z,4.9
2023-05-19T04:16:05.121Z,5.0
2023-05-19T04:19:05.065Z,5.1
2023-05-19T04:22:04.961Z,5.1
2023-05-19T04:25:05.053Z,5.2
2023-05-19T04:28:05.072Z,5.3
2023-05-19T04:31:07.280Z,5.5
2023-05-19T04:34:05.092Z,5.6
2023-05-19T04:37:07.198Z,5.6
2023-05-19T04:40:04.938Z,5.7
2023-05-19T04:43:04.997Z,5.8
2023-05-19T04:46:04.912Z,5.9
2023-05-19T04:49:05.131Z,5.9
2023-05-19T04:52:04.969Z,5.8
2023-05-19T04:55:04.959Z,5.9
2023-05-19T04:58:05.034Z,6.0
2023-05-19T05:01:05.319Z,6.2
2023-05-19T05:04:05.628Z,6.1
2023-05-19T05:07:04.910Z,6.2
2023-05-19T05:10:04.985Z,6.2
2023-05-19T05:13:05.227Z,6.2
2023-05-19T05:16:04.997Z,6.1
2023-05-19T05:19:05.209Z,6.3
2023-05-19T05:22:04.885Z,6.2
2023-05-19T05:25:05.044Z,6.2
2023-05-19T05:28:04.951Z,6.4
2023-05-19T05:31:05.168Z,6.5
2023-05-19T05:34:05.388Z,6.5
2023-05-19T05:37:04.928Z,6.4
2023-05-19T05:40:04.989Z,6.5
2023-05-19T05:43:04.958Z,6.6
2023-05-19T05:46:05.359Z,6.7
2023-05-19T05:49:05.018Z,6.8
2023-05-19T05:52:14.925Z,6.9
2023-05-19T05:55:04.998Z,6.8
2023-05-19T05:58:04.932Z,6.5
2023-05-19T06:01:05.395Z,6.5
2023-05-19T06:04:05.451Z,6.4
2023-05-19T06:07:05.188Z,6.4
2023-05-19T06:10:04.932Z,6.5
2023-05-19T06:13:04.990Z,6.5
2023-05-19T06:16:05.139Z,6.3
2023-05-19T06:19:05.515Z,6.2
2023-05-19T06:22:04.942Z,6.3
2023-05-19T06:25:04.978Z,6.3
2023-05-19T06:28:07.113Z,6.4
2023-05-19T06:31:05.285Z,6.4
2023-05-19T06:34:04.920Z,6.4
2023-05-19T06:37:05.118Z,6.3
2023-05-19T06:40:07.259Z,6.2
2023-05-19T06:43:05.030Z,6.2
2023-05-19T06:46:04.955Z,6.2
2023-05-19T06:49:05.278Z,6.2
2023-05-19T06:52:04.954Z,6.3
2023-05-19T06:55:05.055Z,6.5
2023-05-19T06:58:04.947Z,6.4
2023-05-19T07:01:07.481Z,6.2
2023-05-19T07:04:05.731Z,6.1
2023-05-19T07:07:04.964Z,6.3
2023-05-19T07:10:05.941Z,6.4
2023-05-19T07:13:05.044Z,6.0
2023-05-19T07:16:05.012Z,5.9
2023-05-19T07:19:05.123Z,6.0
2023-05-19T07:22:05.010Z,6.1
2023-05-19T07:25:04.941Z,6.0
2023-05-19T07:28:04.947Z,5.9
2023-05-19T07:31:05.256Z,5.9
2023-05-19T07:34:05.103Z,5.7
2023-05-19T07:37:04.918Z,5.9
2023-05-19T07:40:05.086Z,5.8
2023-05-19T07:43:04.976Z,6.3
2023-05-19T07:46:05.158Z,6.1
2023-05-19T07:49:05.218Z,5.8
2023-05-19T07:52:04.958Z,5.7
2023-05-19T07:55:04.945Z,5.5
2023-05-19T07:58:04.986Z,5.6
2023-05-19T08:01:05.401Z,5.8
2023-05-19T08:04:05.648Z,5.7
2023-05-19T08:07:04.941Z,5.8
2023-05-19T08:10:05.024Z,5.7
2023-05-19T08:13:04.955Z,5.8
2023-05-19T08:16:07.274Z,5.5
2023-05-19T08:19:05.011Z,5.5
2023-05-19T08:22:04.972Z,5.6
2023-05-19T08:25:05.025Z,5.6
2023-05-19T08:28:05.029Z,5.9
2023-05-19T08:31:05.291Z,5.8
2023-05-19T08:34:04.977Z,5.6
2023-05-19T08:37:04.952Z,5.5
2023-05-19T08:40:04.978Z,5.9
2023-05-19T08:43:04.924Z,5.5
2023-05-19T08:46:05.180Z,5.8
2023-05-19T08:49:08.488Z,6.2
2023-05-19T08:52:05.034Z,6.0
2023-05-19T08:55:04.924Z,6.0
2023-05-19T08:58:04.953Z,5.8
2023-05-19T09:01:05.593Z,5.3
2023-05-19T09:04:15.689Z,5.7
2023-05-19T09:07:04.985Z,5.7
2023-05-19T09:10:04.944Z,5.4
2023-05-19T09:13:04.987Z,5.4
2023-05-19T09:16:05.440Z,5.6
2023-05-19T09:19:05.161Z,5.6
2023-05-19T09:22:06.360Z,5.1
2023-05-19T09:25:05.133Z,5.4
2023-05-19T09:28:05.265Z,5.3
2023-05-19T09:31:05.026Z,5.3
2023-05-19T09:34:05.089Z,5.1
2023-05-19T09:37:04.970Z,5.0
2023-05-19T09:40:04.962Z,5.1
2023-05-19T09:43:04.981Z,5.1
2023-05-19T09:46:05.273Z,5.3
2023-05-19T09:49:05.141Z,5.3
2023-05-19T09:52:05.102Z,5.5
2023-05-19T09:55:05.171Z,5.5
2023-05-19T09:58:05.068Z,5.3
2023-05-19T10:01:05.686Z,5.3
2023-05-19T10:04:06.064Z,5.0
2023-05-19T10:07:04.993Z,5.1
2023-05-19T10:10:04.909Z,5.1
2023-05-19T10:13:04.992Z,5.0
2023-05-19T10:16:11.464Z,5.1
2023-05-19T10:19:05.159Z,5.7
2023-05-19T10:22:04.964Z,5.6
2023-05-19T10:25:04.919Z,5.5
2023-05-19T10:28:04.916Z,5.3
2023-05-19T10:31:05.276Z,5.4
2023-05-19T10:34:05.119Z,5.5
2023-05-19T10:37:04.888Z,5.5
2023-05-19T10:40:04.994Z,5.5
2023-05-19T10:43:05.009Z,5.3
2023-05-19T10:46:05.119Z,5.4
2023-05-19T10:49:05.240Z,5.4
2023-05-19T10:52:05.159Z,5.6
2023-05-19T10:55:05.071Z,5.5
2023-05-19T10:58:05.001Z,5.4
2023-05-19T11:01:04.970Z,5.3
2023-05-19T11:04:05.040Z,5.1
2023-05-19T11:07:05.201Z,5.3
2023-05-19T11:10:12.666Z,5.4
2023-05-19T11:13:06.404Z,5.5
2023-05-19T11:16:05.772Z,5.3
2023-05-19T11:19:05.173Z,5.9
2023-05-19T11:22:05.214Z,5.4
2023-05-19T11:25:05.016Z,5.1
2023-05-19T11:28:05.084Z,5.2
2023-05-19T11:31:04.902Z,5.5
2023-05-19T11:34:05.164Z,5.8
2023-05-19T11:37:05.013Z,5.7
2023-05-19T11:40:04.966Z,5.6
2023-05-19T11:43:04.903Z,5.4
2023-05-19T11:46:05.380Z,5.3
2023-05-19T11:49:08.135Z,5.3
2023-05-19T11:52:05.324Z,5.4
2023-05-19T11:55:05.554Z,6.1
2023-05-19T11:58:15.135Z,5.8
2023-05-19T12:01:05.149Z,5.5
2023-05-19T12:04:05.772Z,5.7
2023-05-19T12:07:05.104Z,5.6
2023-05-19T12:10:04.960Z,5.7
2023-05-19T12:13:04.915Z,5.6
2023-05-19T12:16:05.259Z,5.9
2023-05-19T12:19:05.143Z,6.1
2023-05-19T12:22:06.708Z,5.9
2023-05-19T12:25:04.961Z,5.8
2023-05-19T12:28:07.110Z,5.1
2023-05-19T12:31:06.234Z,5.3
2023-05-19T12:34:07.245Z,4.9
2023-05-19T12:37:04.968Z,4.7
2023-05-19T12:40:04.924Z,5.3
2023-05-19T12:43:04.964Z,5.5
2023-05-19T12:46:07.068Z,5.1
2023-05-19T12:49:05.301Z,5.4
2023-05-19T12:52:07.295Z,5.4
2023-05-19T12:55:05.887Z,5.7
2023-05-19T12:58:06.772Z,5.7
2023-05-19T13:01:05.800Z,5.8
2023-05-19T13:04:06.442Z,5.8
2023-05-19T13:07:04.984Z,5.6
2023-05-19T13:10:05.557Z,5.6
2023-05-19T13:13:05.041Z,5.4
2023-05-19T13:16:05.582Z,5.4
2023-05-19T13:19:06.184Z,5.5
2023-05-19T13:22:04.917Z,5.7
2023-05-19T13:25:05.029Z,6.1
2023-05-19T13:28:04.921Z,6.0
2023-05-19T13:31:05.254Z,6.3
2023-05-19T13:34:05.164Z,6.3
2023-05-19T13:37:05.839Z,6.1
2023-05-19T13:40:04.975Z,6.3
2023-05-19T13:43:04.956Z,6.2
2023-05-19T13:46:05.047Z,6.4
2023-05-19T13:49:05.136Z,6.4
2023-05-19T13:52:12.085Z,6.2
2023-05-19T13:55:04.974Z,6.0
2023-05-19T13:58:05.244Z,5.7
2023-05-19T14:01:10.768Z,5.5
2023-05-19T14:04:05.822Z,5.9
2023-05-19T14:07:04.969Z,6.1
2023-05-19T14:10:04.970Z,6.1
2023-05-19T14:16:05.286Z,6.0
2023-05-19T14:19:05.184Z,6.1
2023-05-19T14:22:05.106Z,5.9
2023-05-19T14:25:04.939Z,6.0
2023-05-19T14:28:05.131Z,6.3
2023-05-19T14:31:05.452Z,6.4
2023-05-19T14:34:08.018Z,6.4
2023-05-19T14:37:05.101Z,6.4
2023-05-19T14:40:04.941Z,6.5
2023-05-19T14:43:04.933Z,6.6
2023-05-19T14:46:04.909Z,6.4
2023-05-19T14:49:05.039Z,6.5
2023-05-19T14:52:06.192Z,6.7
2023-05-19T14:55:05.016Z,6.5
2023-05-19T14:58:12.957Z,6.6
2023-05-19T15:01:05.333Z,6.4
2023-05-19T15:04:05.251Z,6.3
2023-05-19T15:07:14.765Z,6.2
2023-05-19T15:10:05.011Z,6.4
2023-05-19T15:13:05.011Z,6.5
2023-05-19T15:16:16.709Z,6.5
2023-05-19T15:19:05.140Z,6.3
2023-05-19T15:22:04.956Z,6.3
2023-05-19T15:25:04.938Z,6.1
2023-05-19T15:28:04.970Z,6.1
2023-05-19T15:31:05.342Z,6.1
2023-05-19T15:34:05.175Z,6.4
2023-05-19T15:37:05.292Z,6.3
2023-05-19T15:40:05.043Z,6.3
2023-05-19T15:43:04.934Z,6.1
2023-05-19T15:46:05.176Z,6.2
2023-05-19T15:49:08.070Z,6.3
2023-05-19T15:52:05.364Z,6.3
2023-05-19T15:55:05.063Z,6.3
2023-05-19T15:58:04.984Z,6.3
2023-05-19T16:01:05.455Z,6.5
2023-05-19T16:04:05.642Z,6.7
2023-05-19T16:07:05.057Z,6.5
2023-05-19T16:10:05.034Z,6.4
2023-05-19T16:13:04.943Z,6.4
2023-05-19T16:16:05.033Z,6.3
2023-05-19T16:19:05.434Z,6.3
2023-05-19T16:22:05.186Z,6.4
2023-05-19T16:25:04.978Z,6.2
2023-05-19T16:28:04.956Z,6.0
2023-05-19T16:31:05.379Z,6.0
2023-05-19T16:34:05.064Z,6.0
2023-05-19T16:37:05.043Z,5.9
2023-05-19T16:40:05.009Z,5.9
2023-05-19T16:43:04.952Z,6.1
2023-05-19T16:46:05.097Z,6.3
2023-05-19T16:49:05.267Z,6.3
2023-05-19T16:52:05.241Z,6.3
2023-05-19T16:55:04.913Z,6.4
2023-05-19T16:58:04.945Z,6.2
2023-05-19T17:01:05.226Z,6.1
2023-05-19T17:04:05.463Z,6.1
2023-05-19T17:07:04.988Z,6.1
2023-05-19T17:10:04.993Z,6.2
2023-05-19T17:13:04.893Z,6.2
2023-05-19T17:16:04.959Z,6.2
2023-05-19T17:19:05.146Z,6.2
2023-05-19T17:22:04.920Z,6.1
2023-05-19T17:25:04.997Z,6.1
2023-05-19T17:28:05.036Z,6.1
2023-05-19T17:31:05.255Z,6.1
2023-05-19T17:34:05.129Z,5.9
2023-05-19T17:37:04.960Z,5.8
2023-05-19T17:40:05.000Z,5.9
2023-05-19T17:43:04.954Z,5.8
2023-05-19T17:46:05.017Z,5.9
2023-05-19T17:49:05.030Z,5.9
2023-05-19T17:52:05.045Z,5.9
2023-05-19T17:55:04.985Z,6.0
2023-05-19T17:58:05.024Z,6.0
2023-05-19T18:01:05.289Z,6.2
2023-05-19T18:04:05.953Z,6.1
2023-05-19T18:07:04.978Z,6.2
2023-05-19T18:10:04.956Z,6.2
2023-05-19T18:13:04.952Z,6.0
2023-05-19T18:16:05.037Z,6.0
2023-05-19T18:19:05.163Z,5.9
2023-05-19T18:22:04.937Z,6.0
2023-05-19T18:25:05.027Z,6.0
2023-05-19T18:28:05.089Z,6.1
2023-05-19T18:31:05.219Z,5.9
2023-05-19T18:34:05.086Z,5.9
2023-05-19T18:37:05.023Z,6.0
2023-05-19T18:40:05.012Z,6.1
2023-05-19T18:43:04.964Z,6.1
2023-05-19T18:46:05.003Z,6.2
2023-05-19T18:49:05.115Z,6.1
2023-05-19T18:52:05.033Z,6.1
2023-05-19T18:55:05.075Z,6.1
2023-05-19T18:58:04.985Z,6.1
2023-05-19T19:01:05.298Z,6.0
2023-05-19T19:04:05.720Z,6.1
2023-05-19T19:07:04.977Z,6.1
2023-05-19T19:10:05.003Z,6.2
2023-05-19T19:13:06.765Z,6.1
2023-05-19T19:16:04.910Z,6.2
2023-05-19T19:19:05.456Z,6.1
2023-05-19T19:22:05.022Z,6.2
2023-05-19T19:25:04.987Z,6.1
2023-05-19T19:28:04.990Z,6.1
2023-05-19T19:31:05.206Z,6.0
2023-05-19T19:34:04.962Z,6.0
2023-05-19T19:37:04.982Z,5.9
2023-05-19T19:40:04.947Z,6.0
2023-05-19T19:43:04.980Z,6.0
2023-05-19T19:46:04.942Z,6.0
2023-05-19T19:49:05.010Z,6.0
2023-05-19T19:52:04.973Z,5.9
2023-05-19T19:55:04.930Z,5.9
2023-05-19T19:58:04.897Z,5.8
2023-05-19T20:01:05.303Z,5.8
2023-05-19T20:04:10.705Z,5.8
2023-05-19T20:07:05.019Z,5.7
2023-05-19T20:10:05.005Z,5.7
2023-05-19T20:13:05.039Z,5.7
2023-05-19T20:16:05.034Z,5.7
2023-05-19T20:19:06.629Z,5.9
2023-05-19T20:22:05.036Z,5.8
2023-05-19T20:25:05.054Z,5.7
2023-05-19T20:28:04.972Z,5.7
2023-05-19T20:31:05.160Z,5.7
2023-05-19T20:34:05.060Z,5.6
2023-05-19T20:37:05.068Z,5.6
2023-05-19T20:40:05.027Z,5.5
2023-05-19T20:43:04.985Z,5.5
2023-05-19T20:46:05.552Z,5.4
2023-05-19T20:49:05.085Z,5.3
2023-05-19T20:52:04.900Z,5.4
2023-05-19T20:55:05.351Z,5.3
2023-05-19T20:58:05.029Z,5.2
2023-05-19T21:01:06.122Z,5.2
2023-05-19T21:04:05.214Z,5.1
2023-05-19T21:07:05.188Z,5.1
2023-05-19T21:10:04.972Z,5.1
2023-05-19T21:13:05.049Z,5.1
2023-05-19T21:16:04.995Z,5.1
2023-05-19T21:19:05.075Z,5.1
2023-05-19T21:22:04.976Z,5.1
2023-05-19T21:25:04.974Z,5.1
2023-05-19T21:28:05.157Z,5.1
2023-05-19T21:31:05.705Z,5.1
2023-05-19T21:34:05.213Z,5.1
2023-05-19T21:37:06.204Z,5.2
2023-05-19T21:40:05.047Z,5.2
2023-05-19T21:43:04.985Z,5.3
2023-05-19T21:46:05.076Z,5.4
2023-05-19T21:49:06.365Z,5.4
2023-05-19T21:52:05.106Z,5.5
2023-05-19T21:55:05.874Z,5.6
2023-05-19T21:58:04.953Z,5.6
2023-05-19T22:01:05.485Z,5.8
2023-05-19T22:04:05.624Z,5.8
2023-05-19T22:07:04.976Z,5.9
2023-05-19T22:10:05.179Z,6.0
2023-05-19T22:13:04.946Z,6.1
2023-05-19T22:16:05.042Z,6.1
2023-05-19T22:19:05.226Z,6.2
2023-05-19T22:22:14.023Z,6.2
2023-05-19T22:25:04.921Z,6.2
2023-05-19T22:28:05.011Z,6.3
2023-05-19T22:31:05.229Z,6.3
2023-05-19T22:34:05.037Z,6.3
2023-05-19T22:37:04.986Z,6.4
2023-05-19T22:40:04.978Z,6.4
2023-05-19T22:43:04.998Z,6.4
2023-05-19T22:46:05.467Z,6.4
2023-05-19T22:49:05.021Z,6.4
2023-05-19T22:52:05.911Z,6.5
2023-05-19T22:55:05.336Z,6.4
2023-05-19T22:58:04.949Z,6.4
2023-05-19T23:01:05.112Z,6.4
2023-05-19T23:04:05.037Z,6.4
2023-05-19T23:07:04.933Z,6.4
2023-05-19T23:10:04.930Z,6.4
2023-05-19T23:13:04.934Z,6.4
2023-05-19T23:16:05.400Z,6.4
2023-05-19T23:19:05.005Z,6.3
2023-05-19T23:22:04.930Z,6.4
2023-05-19T23:25:04.960Z,6.4
2023-05-19T23:28:04.947Z,6.3
2023-05-19T23:31:06.378Z,6.3
2023-05-19T23:34:04.985Z,6.2
2023-05-19T23:37:04.998Z,6.2
2023-05-19T23:40:04.949Z,6.2
2023-05-19T23:43:04.984Z,6.2
2023-05-19T23:46:05.196Z,6.2
2023-05-19T23:49:05.062Z,6.2
2023-05-19T23:52:04.994Z,6.2
2023-05-19T23:55:04.979Z,6.1
2023-05-19T23:58:04.947Z,6.2
